• Join FlightAware (Why Join?)
  • Login
  • US Flag 
06:04AM EST


 

Airport Tracker/Info


-or-


 

Live Flight TrackerFlight Track Log ✈ EJA727 ✈ 05-May-2013 ✈ KOMA - KFCI

Flight Track Log - Related Links

Times and Time Zones

All times are in EDT time to prevent confusion due to time zone crossing. See the EJA727 flight status page for this flight to view local times or setup timezone preferences in your user account.

Time Position Orientation Groundspeed Altitude Reporting Facility
EDT Latitude Longitude Course Direction KTS MPH feet Rate Location/Type
02:47PM 41.3192 -95.9111 359° North 187 215 1,700  Level Minneapolis Center
02:48PM 41.3667 -95.9117 359° North 238 274 3,900 2,460 Climbing Minneapolis Center
02:49PM 41.4008 -95.8489 54° Northeast 264 304 6,300 2,460 Climbing Minneapolis Center
02:50PM 41.3939 -95.7469 95° East 270 311 9,000 2,280 Climbing Minneapolis Center
02:51PM 41.3867 -95.6622 96° East 277 319 11,100 2,460 Climbing Minneapolis Center
02:52PM 41.3614 -95.5061 102° East 339 390 14,200 2,940 Climbing Minneapolis Center
02:53PM 41.3367 -95.3431 101° East 373 429 17,300 2,580 Climbing Minneapolis Center
02:54PM 41.3147 -95.2022 102° East 385 443 19,600 2,160 Climbing Minneapolis Center
02:55PM 41.2919 -95.0494 101° East 411 473 21,800 2,040 Climbing Minneapolis Center
02:56PM 41.2672 -94.8889 102° East 435 501 23,900 1,980 Climbing Minneapolis Center
02:57PM 41.2411 -94.7278 102° East 444 511 26,000 2,040 Climbing Minneapolis Center
02:58PM 41.2156 -94.5661 102° East 447 514 28,100 1,740 Climbing Minneapolis Center
02:59PM 41.1906 -94.4044 102° East 448 516 29,600 1,500 Climbing Minneapolis Center
03:01PM 41.1361 -94.0636 102° East 449 517 32,800 1,380 Climbing Minneapolis Center
03:02PM 41.1086 -93.9061 103° East 444 511 34,000 1,020 Climbing Minneapolis Center
03:03PM 41.0836 -93.7469 102° East 444 511 35,000 480 Climbing Minneapolis Center
03:04PM 41.0503 -93.5553 103° East 446 513 35,000  Level Minneapolis Center
03:05PM 41.0242 -93.3939 102° East 449 517 35,000  Level Minneapolis Center
03:06PM 40.9972 -93.2336 103° East 449 517 35,000  Level Minneapolis Center
03:07PM 40.9706 -93.0733 102° East 449 517 35,000  Level Minneapolis Center
03:08PM 40.9433 -92.9122 103° East 449 517 35,000  Level Minneapolis Center
03:09PM 40.9042 -92.6881 103° East 447 514 35,000  Level Chicago Center
03:10PM 40.8872 -92.5922 103° East 448 516 35,000 180 Level Chicago Center
03:12PM 40.8503 -92.3847 103° East  Level FlightAware Approximate
03:12PM 40.8306 -92.2739 103° East 446 513 35,500  Level Chicago Center
03:13PM 40.8033 -92.1175 103° East 441 507 36,500 960 Climbing Chicago Center
03:14PM 40.7744 -91.9631 104° East 437 503 37,500 1,020 Climbing Chicago Center
03:15PM 40.7411 -91.7756 103° East 438 504 38,700 720 Climbing Chicago Center
03:16PM 40.7111 -91.6192 104° East 443 510 39,000 120 Climbing Chicago Center
03:17PM 40.6817 -91.4581 104° East 453 521 39,000  Level Chicago Center
03:18PM 40.6483 -91.2836 104° East 452 520 39,000  Level Chicago Center
03:19PM 40.6183 -91.1256 104° East 447 514 39,000  Level Chicago Center
03:20PM 40.5892 -90.9703 104° East 440 506 39,000  Level Chicago Center
03:21PM 40.5581 -90.8136 105° East 443 510 39,000  Level Chicago Center
03:23PM 40.5278 -90.6586 104° East 440 506 39,000  Level Chicago Center
03:24PM 40.4969 -90.5022 104° East 444 511 39,000  Level Chicago Center
03:25PM 40.4603 -90.3178 105° East 438 504 39,000  Level Chicago Center
03:26PM 40.4292 -90.1656 105° East 436 502 39,000  Level Chicago Center
03:27PM 40.3994 -90.0161 105° East 429 494 39,000  Level Chicago Center
03:28PM 40.3686 -89.8664 105° East 432 497 39,000  Level Chicago Center
03:29PM 40.3314 -89.6856 105° East 432 497 39,000  Level Chicago Center
03:30PM 40.3008 -89.5353 105° East 431 496 39,000  Level Chicago Center
03:31PM 40.2689 -89.3822 105° East 435 501 39,000  Level Chicago Center
03:32PM 40.2369 -89.2289 105° East 438 504 39,000  Level Chicago Center
03:33PM 40.2061 -89.0744 105° East 440 506 39,000  Level Chicago Center
03:34PM 40.1733 -88.9200 105° East 442 509 39,000  Level Chicago Center
03:35PM 40.1339 -88.7356 106° East 441 507 39,000  Level Chicago Center
03:36PM 40.1011 -88.5833 106° East 438 504 39,000  Level Chicago Center
03:37PM 40.0681 -88.4303 106° East 438 504 39,000  Level Chicago Center
03:38PM 40.0361 -88.2786 105° East 434 499 39,000  Level Chicago Center
03:39PM 40.0128 -88.1242 101° East 438 504 39,000  Level Chicago Center
03:40PM 39.9836 -87.9367 101° East 440 506 39,000  Level Chicago Center
03:41PM 39.9578 -87.7775 102° East 448 516 39,000  Level Chicago Center
03:41PM 39.9483 -87.7144 101° East 448 516 39,000  Level Indianapolis Center
03:43PM 39.9225 -87.5553 102° East 451 519 39,000  Level Indianapolis Center
03:44PM 39.8972 -87.3950 102° East 454 522 39,000  Level Indianapolis Center
03:45PM 39.8711 -87.2369 102° East 451 519 39,000  Level Indianapolis Center
03:46PM 39.8453 -87.0803 102° East 445 512 39,000  Level Indianapolis Center
03:47PM 39.8200 -86.9228 102° East 447 514 39,000  Level Indianapolis Center
03:48PM 39.7892 -86.7378 102° East 440 506 39,000  Level Indianapolis Center
03:49PM 39.7631 -86.5819 102° East 442 509 39,000  Level Indianapolis Center
03:50PM 39.7372 -86.4281 102° East 441 507 39,000  Level Indianapolis Center
03:51PM 39.7086 -86.2597 102° East 442 509 39,000  Level Indianapolis Center
03:52PM 39.6808 -86.1003 103° East 441 507 39,000  Level Indianapolis Center
03:53PM 39.6539 -85.9456 103° East 441 507 39,000  Level Indianapolis Center
03:54PM 39.6264 -85.7911 103° East 442 509 39,000  Level Indianapolis Center
03:55PM 39.5931 -85.6381 106° East 443 510 39,000  Level Indianapolis Center
03:56PM 39.5533 -85.4539 106° East 445 512 39,000  Level Indianapolis Center
03:57PM 39.5200 -85.3000 106° East 444 511 39,000  Level Indianapolis Center
03:58PM 39.4864 -85.1464 106° East 446 513 39,000  Level Indianapolis Center
03:59PM 39.4533 -84.9947 106° East 442 509 39,000  Level Indianapolis Center
04:01PM 39.4073 -84.7881 106° East  Level FlightAware Approximate
04:01PM 39.3817 -84.6719 106° East 439 505 39,000  Level Indianapolis Center
04:02PM 39.3472 -84.5197 106° East 439 505 39,000 -60 Level Indianapolis Center
04:03PM 39.3133 -84.3689 106° East 437 503 38,900  Descending Indianapolis Center
04:04PM 39.2792 -84.2186 106° East 436 502 39,000  Climbing Indianapolis Center
04:05PM 39.2447 -84.0675 106° East 435 501 39,000  Level Indianapolis Center
04:06PM 39.2039 -83.8917 107° East 438 504 39,000  Level Indianapolis Center
04:07PM 39.1689 -83.7414 107° East 435 501 39,000  Level Indianapolis Center
04:08PM 39.1339 -83.5925 107° East 433 498 39,000  Level Indianapolis Center
04:09PM 39.0981 -83.4433 107° East 435 501 39,000  Level Indianapolis Center
04:10PM 39.0631 -83.2928 107° East 436 502 39,000  Level Indianapolis Center
04:11PM 39.0250 -83.1319 107° East 437 503 39,000  Level Indianapolis Center
04:12PM 38.9889 -82.9833 107° East 437 503 39,000  Level Indianapolis Center
04:14PM 38.9533 -82.8328 107° East 438 504 39,000  Level Indianapolis Center
04:15PM 38.9161 -82.6825 108° East 442 509 39,000  Level Indianapolis Center
04:16PM 38.8714 -82.5014 108° East 444 511 39,000  Level Indianapolis Center
04:17PM 38.8347 -82.3492 107° East 446 513 39,000  Level Indianapolis Center
04:18PM 38.7961 -82.1972 108° East 449 517 39,000  Level Indianapolis Center
04:19PM 38.7586 -82.0450 107° East 450 518 39,000  Level Indianapolis Center
04:20PM 38.7183 -81.8944 109° East 448 516 39,000 -360 Level Indianapolis Center
04:21PM 38.6772 -81.7425 109° East 452 520 38,300 -540 Descending Indianapolis Center
04:22PM 38.6283 -81.5636 109° East 450 518 38,000 -120 Descending Indianapolis Center
04:24PM 38.5511 -81.2819 109° East 436 502 38,000 -120 Level Indianapolis Center
04:25PM 38.5097 -81.1353 110° East 441 507 37,700 -720 Descending Indianapolis Center
04:26PM 38.4669 -80.9875 110° East 444 511 36,600 -1,200 Descending Indianapolis Center
04:27PM 38.4189 -80.8092 109° East 444 511 35,300 -1,260 Descending Indianapolis Center
04:28PM 38.3761 -80.6608 110° East 446 513 34,100 -1,080 Descending Indianapolis Center
04:29PM 38.3417 -80.5528 112° Southeast 437 503 33,400 -1,440 Descending Washington Center
04:30PM 38.3039 -80.4100 109° East 449 517 31,600 -2,040 Descending Washington Center
04:31PM 38.2578 -80.2564 111° Southeast 460 529 29,500 -2,160 Descending Washington Center
04:32PM 38.2156 -80.1031 109° East 460 529 27,400 -2,100 Descending Washington Center
04:33PM 38.1731 -79.9553 110° East 455 524 25,300 -2,340 Descending Washington Center
04:34PM 38.1267 -79.7942 110° East 455 524 22,800 -2,280 Descending Washington Center
04:35PM 38.0858 -79.6519 110° East 441 507 20,800 -1,440 Descending Washington Center
04:36PM 38.0444 -79.5125 111° Southeast 428 493 20,000 -420 Descending Washington Center
04:37PM 38.0031 -79.3733 111° Southeast 418 481 20,000 -240 Level Washington Center
04:38PM 37.9617 -79.2344 111° Southeast 418 481 19,600 -540 Descending Washington Center
04:39PM 37.9256 -79.1142 111° Southeast 418 481 19,000 -360 Descending Washington Center
04:40PM 37.8897 -78.9861 109° East 405 466 19,000 -660 Level Washington Center
04:41PM 37.8514 -78.8608 111° Southeast 391 450 17,800 -1,380 Descending Washington Center
04:42PM 37.8128 -78.7408 112° Southeast 380 437 16,300 600 Descending Washington Center
04:43PM 37.7783 -78.6239 110° East 369 425 19,000 -1,620 Climbing Washington Center
04:44PM 37.7417 -78.5017 111° Southeast 349 402 13,100 -3,780 Descending Washington Center
04:45PM 37.7108 -78.3981 111° Southeast 335 386 11,600 -1,560 Descending Washington Center
04:46PM 37.6775 -78.2997 113° Southeast 314 361 10,100 -1,320 Descending Washington Center
04:47PM 37.6506 -78.2094 111° Southeast 297 342 9,000 -540 Descending Washington Center
04:48PM 37.6231 -78.1300 114° Southeast 281 323 9,000  Level Washington Center
04:49PM 37.5936 -78.0372 112° Southeast 268 308 9,000  Level Washington Center
04:50PM 37.5661 -77.9472 111° Southeast 263 303 9,000 -1,440 Level Washington Center
04:52PM 37.5736 -77.7667 87° East 258 297 4,800 -2,040 Descending Washington Center
04:53PM 37.5667 -77.6878 96° East 242 278 2,900 -1,140 Descending Washington Center
04:54PM 37.5278 -77.6475 141° Southeast 193 222 2,600 -360 Descending Washington Center